sensor_id;sensor_type;location;lat;lon;timestamp;pressure;altitude;pressure_sealevel;temperature;humidity
8140;BME280;4111;50.972;7.072;2023-07-29T00:01:55;100287.94;;;20.35;100.00
8140;BME280;4111;50.972;7.072;2023-07-29T00:04:22;100288.44;;;20.37;100.00
8140;BME280;4111;50.972;7.072;2023-07-29T00:06:48;100284.06;;;20.36;100.00
8140;BME280;4111;50.972;7.072;2023-07-29T00:09:15;100297.53;;;20.38;100.00
8140;BME280;4111;50.972;7.072;2023-07-29T00:11:41;100283.56;;;20.43;100.00
8140;BME280;4111;50.972;7.072;2023-07-29T00:14:07;100280.34;;;20.41;100.00
8140;BME280;4111;50.972;7.072;2023-07-29T00:16:34;100273.84;;;20.37;100.00
8140;BME280;4111;50.972;7.072;2023-07-29T00:19:02;100277.41;;;20.37;100.00
8140;BME280;4111;50.972;7.072;2023-07-29T00:21:29;100270.78;;;20.38;100.00
8140;BME280;4111;50.972;7.072;2023-07-29T00:23:55;100260.38;;;20.35;100.00
8140;BME280;4111;50.972;7.072;2023-07-29T00:26:27;100258.78;;;20.34;100.00
8140;BME280;4111;50.972;7.072;2023-07-29T00:28:56;100250.19;;;20.36;100.00
8140;BME280;4111;50.972;7.072;2023-07-29T00:31:22;100258.78;;;20.34;100.00
8140;BME280;4111;50.972;7.072;2023-07-29T00:33:49;100263.47;;;20.34;100.00
8140;BME280;4111;50.972;7.072;2023-07-29T00:36:15;100264.59;;;20.33;100.00
8140;BME280;4111;50.972;7.072;2023-07-29T00:38:41;100266.72;;;20.36;100.00
8140;BME280;4111;50.972;7.072;2023-07-29T00:41:09;100261.22;;;20.36;100.00
8140;BME280;4111;50.972;7.072;2023-07-29T00:43:39;100267.69;;;20.31;100.00
8140;BME280;4111;50.972;7.072;2023-07-29T00:46:07;100261.69;;;20.29;100.00
8140;BME280;4111;50.972;7.072;2023-07-29T00:48:34;100258.75;;;20.26;100.00
8140;BME280;4111;50.972;7.072;2023-07-29T00:51:01;100260.72;;;20.25;100.00
8140;BME280;4111;50.972;7.072;2023-07-29T00:53:28;100255.81;;;20.22;100.00
8140;BME280;4111;50.972;7.072;2023-07-29T00:55:55;100250.31;;;20.22;100.00
8140;BME280;4111;50.972;7.072;2023-07-29T00:58:21;100253.41;;;20.29;100.00
8140;BME280;4111;50.972;7.072;2023-07-29T01:00:48;100253.72;;;20.28;100.00
8140;BME280;4111;50.972;7.072;2023-07-29T01:03:15;100248.88;;;20.25;100.00
8140;BME280;4111;50.972;7.072;2023-07-29T01:06:01;100243.03;;;20.17;100.00
8140;BME280;4111;50.972;7.072;2023-07-29T01:08:42;100232.81;;;20.18;100.00
8140;BME280;4111;50.972;7.072;2023-07-29T01:13:48;100229.72;;;20.19;100.00
8140;BME280;4111;50.972;7.072;2023-07-29T01:16:24;100227.28;;;20.18;100.00
8140;BME280;4111;50.972;7.072;2023-07-29T01:18:53;100227.47;;;20.21;100.00
8140;BME280;4111;50.972;7.072;2023-07-29T01:21:21;100238.19;;;20.14;100.00
8140;BME280;4111;50.972;7.072;2023-07-29T01:23:52;100228.94;;;20.19;100.00
8140;BME280;4111;50.972;7.072;2023-07-29T01:26:19;100226.16;;;20.19;100.00
8140;BME280;4111;50.972;7.072;2023-07-29T01:28:46;100223.59;;;20.23;100.00
8140;BME280;4111;50.972;7.072;2023-07-29T01:31:27;100217.75;;;20.24;100.00
8140;BME280;4111;50.972;7.072;2023-07-29T01:34:06;100223.41;;;20.19;100.00
8140;BME280;4111;50.972;7.072;2023-07-29T01:36:35;100218.06;;;20.14;100.00
8140;BME280;4111;50.972;7.072;2023-07-29T01:39:06;100215.97;;;20.11;100.00
8140;BME280;4111;50.972;7.072;2023-07-29T01:41:33;100216.13;;;20.14;100.00
8140;BME280;4111;50.972;7.072;2023-07-29T01:44:01;100212.88;;;20.12;100.00
8140;BME280;4111;50.972;7.072;2023-07-29T01:46:28;100205.91;;;20.15;100.00
8140;BME280;4111;50.972;7.072;2023-07-29T01:48:54;100203.63;;;20.17;100.00
8140;BME280;4111;50.972;7.072;2023-07-29T01:51:20;100208.47;;;20.20;100.00
8140;BME280;4111;50.972;7.072;2023-07-29T01:53:47;100208.47;;;20.20;100.00
8140;BME280;4111;50.972;7.072;2023-07-29T01:56:14;100214.47;;;20.22;100.00
8140;BME280;4111;50.972;7.072;2023-07-29T01:58:40;100212.38;;;20.19;100.00
8140;BME280;4111;50.972;7.072;2023-07-29T02:01:07;100217.59;;;20.20;100.00
8140;BME280;4111;50.972;7.072;2023-07-29T02:03:33;100219.69;;;20.15;100.00
8140;BME280;4111;50.972;7.072;2023-07-29T02:06:00;100212.22;;;20.15;100.00
8140;BME280;4111;50.972;7.072;2023-07-29T02:08:26;100200.06;;;20.08;100.00
8140;BME280;4111;50.972;7.072;2023-07-29T02:10:52;100206.22;;;20.05;100.00
8140;BME280;4111;50.972;7.072;2023-07-29T02:13:19;100217.88;;;20.01;100.00
8140;BME280;4111;50.972;7.072;2023-07-29T02:15:45;100220.81;;;19.96;100.00
8140;BME280;4111;50.972;7.072;2023-07-29T02:18:12;100209.59;;;19.84;100.00
8140;BME280;4111;50.972;7.072;2023-07-29T02:20:38;100187.56;;;19.84;100.00
8140;BME280;4111;50.972;7.072;2023-07-29T02:23:05;100189.81;;;19.73;100.00
8140;BME280;4111;50.972;7.072;2023-07-29T02:25:51;100197.13;;;19.78;100.00
8140;BME280;4111;50.972;7.072;2023-07-29T02:28:18;100194.34;;;19.78;100.00
8140;BME280;4111;50.972;7.072;2023-07-29T02:30:44;100204.56;;;19.86;100.00
8140;BME280;4111;50.972;7.072;2023-07-29T02:33:11;100197.94;;;19.87;100.00
8140;BME280;4111;50.972;7.072;2023-07-29T02:35:38;100205.41;;;19.87;100.00
8140;BME280;4111;50.972;7.072;2023-07-29T02:38:04;100201.00;;;19.86;100.00
8140;BME280;4111;50.972;7.072;2023-07-29T02:40:30;100188.22;;;19.81;100.00
8140;BME280;4111;50.972;7.072;2023-07-29T02:42:57;100194.38;;;19.87;100.00
8140;BME280;4111;50.972;7.072;2023-07-29T02:45:23;100200.53;;;19.92;100.00
8140;BME280;4111;50.972;7.072;2023-07-29T02:47:50;100205.88;;;19.97;100.00
8140;BME280;4111;50.972;7.072;2023-07-29T02:50:16;100207.53;;;19.98;100.00
8140;BME280;4111;50.972;7.072;2023-07-29T02:52:43;100219.19;;;20.04;100.00
8140;BME280;4111;50.972;7.072;2023-07-29T02:55:09;100224.84;;;20.08;100.00
8140;BME280;4111;50.972;7.072;2023-07-29T02:57:39;100219.03;;;20.09;100.00
8140;BME280;4111;50.972;7.072;2023-07-29T03:00:24;100211.09;;;20.08;100.00
8140;BME280;4111;50.972;7.072;2023-07-29T03:02:51;100213.19;;;20.02;100.00
8140;BME280;4111;50.972;7.072;2023-07-29T03:05:18;100199.09;;;20.04;100.00
8140;BME280;4111;50.972;7.072;2023-07-29T03:07:44;100207.34;;;20.04;100.00
8140;BME280;4111;50.972;7.072;2023-07-29T03:10:11;100203.13;;;20.06;100.00
8140;BME280;4111;50.972;7.072;2023-07-29T03:12:37;100209.97;;;20.09;100.00
8140;BME280;4111;50.972;7.072;2023-07-29T03:15:04;100210.91;;;20.04;100.00
8140;BME280;4111;50.972;7.072;2023-07-29T03:17:31;100209.78;;;20.05;100.00
8140;BME280;4111;50.972;7.072;2023-07-29T03:19:57;100212.06;;;20.12;100.00
8140;BME280;4111;50.972;7.072;2023-07-29T03:22:24;100202.34;;;20.14;100.00
8140;BME280;4111;50.972;7.072;2023-07-29T03:24:50;100199.72;;;20.18;100.00
8140;BME280;4111;50.972;7.072;2023-07-29T03:27:16;100189.53;;;20.18;100.00
8140;BME280;4111;50.972;7.072;2023-07-29T03:29:43;100201.03;;;20.20;100.00
8140;BME280;4111;50.972;7.072;2023-07-29T03:32:09;100203.97;;;20.24;100.00
8140;BME280;4111;50.972;7.072;2023-07-29T03:34:36;100191.94;;;20.20;100.00
8140;BME280;4111;50.972;7.072;2023-07-29T03:37:02;100197.44;;;20.20;100.00
8140;BME280;4111;50.972;7.072;2023-07-29T03:39:29;100195.84;;;20.19;100.00
8140;BME280;4111;50.972;7.072;2023-07-29T03:41:55;100201.84;;;20.21;100.00
8140;BME280;4111;50.972;7.072;2023-07-29T03:44:22;100195.38;;;20.17;100.00
8140;BME280;4111;50.972;7.072;2023-07-29T03:46:48;100196.84;;;20.14;100.00
8140;BME280;4111;50.972;7.072;2023-07-29T03:49:15;100203.63;;;20.17;100.00
8140;BME280;4111;50.972;7.072;2023-07-29T03:51:41;100204.25;;;20.14;100.00
8140;BME280;4111;50.972;7.072;2023-07-29T03:54:08;100199.41;;;20.11;100.00
8140;BME280;4111;50.972;7.072;2023-07-29T03:56:34;100201.69;;;20.09;100.00
8140;BME280;4111;50.972;7.072;2023-07-29T03:59:03;100199.25;;;20.07;100.00
8140;BME280;4111;50.972;7.072;2023-07-29T04:01:31;100201.53;;;20.05;100.00
8140;BME280;4111;50.972;7.072;2023-07-29T04:03:58;100173.81;;;19.93;100.00
8140;BME280;4111;50.972;7.072;2023-07-29T04:06:25;100186.75;;;19.92;100.00
8140;BME280;4111;50.972;7.072;2023-07-29T04:08:51;100197.78;;;19.92;100.00
8140;BME280;4111;50.972;7.072;2023-07-29T04:11:18;100196.66;;;19.93;100.00
8140;BME280;4111;50.972;7.072;2023-07-29T04:13:44;100199.41;;;19.93;100.00
8140;BME280;4111;50.972;7.072;2023-07-29T04:16:10;100205.25;;;20.00;100.00
8140;BME280;4111;50.972;7.072;2023-07-29T04:18:37;100219.03;;;20.00;100.00
8140;BME280;4111;50.972;7.072;2023-07-29T04:21:03;100221.78;;;20.00;100.00
8140;BME280;4111;50.972;7.072;2023-07-29T04:23:30;100212.69;;;20.00;100.00
8140;BME280;4111;50.972;7.072;2023-07-29T04:25:56;100211.41;;;19.97;100.00
8140;BME280;4111;50.972;7.072;2023-07-29T04:28:22;100205.09;;;19.97;100.00
8140;BME280;4111;50.972;7.072;2023-07-29T04:30:49;100221.13;;;20.04;100.00
8140;BME280;4111;50.972;7.072;2023-07-29T04:33:15;100215.63;;;20.04;100.00
8140;BME280;4111;50.972;7.072;2023-07-29T04:35:42;100226.16;;;20.01;100.00
8140;BME280;4111;50.972;7.072;2023-07-29T04:38:08;100217.72;;;19.98;100.00
8140;BME280;4111;50.972;7.072;2023-07-29T04:40:34;100206.22;;;19.96;100.00
8140;BME280;4111;50.972;7.072;2023-07-29T04:43:01;100208.66;;;19.97;100.00
8140;BME280;4111;50.972;7.072;2023-07-29T04:45:28;100212.69;;;19.91;100.00
8140;BME280;4111;50.972;7.072;2023-07-29T04:47:56;100221.75;;;19.92;100.00
8140;BME280;4111;50.972;7.072;2023-07-29T04:50:23;100243.50;;;19.93;100.00
8140;BME280;4111;50.972;7.072;2023-07-29T04:52:49;100249.81;;;19.85;100.00
8140;BME280;4111;50.972;7.072;2023-07-29T04:55:16;100248.34;;;19.88;100.00
8140;BME280;4111;50.972;7.072;2023-07-29T04:57:42;100251.75;;;19.93;100.00
8140;BME280;4111;50.972;7.072;2023-07-29T05:00:09;100254.69;;;19.97;100.00
8140;BME280;4111;50.972;7.072;2023-07-29T05:02:37;100246.41;;;19.97;100.00
8140;BME280;4111;50.972;7.072;2023-07-29T05:05:03;100241.72;;;19.97;100.00
8140;BME280;4111;50.972;7.072;2023-07-29T05:07:30;100239.59;;;19.94;100.00
8140;BME280;4111;50.972;7.072;2023-07-29T05:09:56;100231.19;;;19.99;100.00
8140;BME280;4111;50.972;7.072;2023-07-29T05:12:23;100238.31;;;20.00;100.00
8140;BME280;4111;50.972;7.072;2023-07-29T05:14:49;100233.44;;;19.97;100.00
8140;BME280;4111;50.972;7.072;2023-07-29T05:17:16;100236.03;;;19.94;100.00
8140;BME280;4111;50.972;7.072;2023-07-29T05:19:42;100240.88;;;19.88;100.00
8140;BME280;4111;50.972;7.072;2023-07-29T05:22:09;100236.50;;;19.87;100.00
8140;BME280;4111;50.972;7.072;2023-07-29T05:24:36;100234.88;;;19.86;100.00
8140;BME280;4111;50.972;7.072;2023-07-29T05:27:02;100227.75;;;19.94;100.00
8140;BME280;4111;50.972;7.072;2023-07-29T05:29:29;100229.09;;;19.96;100.00
8140;BME280;4111;50.972;7.072;2023-07-29T05:31:55;100224.38;;;19.97;100.00
8140;BME280;4111;50.972;7.072;2023-07-29T05:34:23;100231.66;;;20.01;100.00
8140;BME280;4111;50.972;7.072;2023-07-29T05:36:49;100241.56;;;20.03;100.00
8140;BME280;4111;50.972;7.072;2023-07-29T05:39:16;100247.56;;;20.05;100.00
8140;BME280;4111;50.972;7.072;2023-07-29T05:41:42;100248.50;;;20.00;100.00
8140;BME280;4111;50.972;7.072;2023-07-29T05:44:08;100263.25;;;20.04;100.00
8140;BME280;4111;50.972;7.072;2023-07-29T05:46:36;100270.72;;;20.04;100.00
8140;BME280;4111;50.972;7.072;2023-07-29T05:49:03;100270.72;;;20.04;100.00
8140;BME280;4111;50.972;7.072;2023-07-29T05:51:29;100271.88;;;20.03;100.00
8140;BME280;4111;50.972;7.072;2023-07-29T05:53:55;100273.00;;;20.01;100.00
8140;BME280;4111;50.972;7.072;2023-07-29T05:56:22;100268.28;;;20.02;100.00
8140;BME280;4111;50.972;7.072;2023-07-29T05:58:48;100277.03;;;20.04;100.00
8140;BME280;4111;50.972;7.072;2023-07-29T06:01:15;100281.13;;;20.07;100.00
8140;BME280;4111;50.972;7.072;2023-07-29T06:03:42;100274.16;;;20.09;100.00
8140;BME280;4111;50.972;7.072;2023-07-29T06:06:09;100285.66;;;20.11;100.00
8140;BME280;4111;50.972;7.072;2023-07-29T06:08:35;100287.94;;;20.09;100.00
8140;BME280;4111;50.972;7.072;2023-07-29T06:11:01;100296.06;;;20.14;100.00
8140;BME280;4111;50.972;7.072;2023-07-29T06:13:28;100305.31;;;20.18;100.00
8140;BME280;4111;50.972;7.072;2023-07-29T06:15:58;100310.97;;;20.22;100.00
8140;BME280;4111;50.972;7.072;2023-07-29T06:18:25;100309.34;;;20.21;100.00
8140;BME280;4111;50.972;7.072;2023-07-29T06:20:52;100310.47;;;20.20;100.00
8140;BME280;4111;50.972;7.072;2023-07-29T06:23:18;100314.88;;;20.21;100.00
8140;BME280;4111;50.972;7.072;2023-07-29T06:25:44;100311.28;;;20.12;100.00
8140;BME280;4111;50.972;7.072;2023-07-29T06:28:11;100321.66;;;20.15;100.00
8140;BME280;4111;50.972;7.072;2023-07-29T06:30:37;100320.38;;;20.21;100.00
8140;BME280;4111;50.972;7.072;2023-07-29T06:33:04;100326.38;;;20.23;100.00
8140;BME280;4111;50.972;7.072;2023-07-29T06:35:30;100331.41;;;20.21;100.00
8140;BME280;4111;50.972;7.072;2023-07-29T06:37:57;100329.13;;;20.23;100.00
8140;BME280;4111;50.972;7.072;2023-07-29T06:40:23;100333.50;;;20.15;100.00
8140;BME280;4111;50.972;7.072;2023-07-29T06:42:49;100337.84;;;20.08;100.00
8140;BME280;4111;50.972;7.072;2023-07-29T06:45:16;100337.16;;;19.93;100.00
8140;BME280;4111;50.972;7.072;2023-07-29T06:47:43;100331.78;;;19.88;100.00
8140;BME280;4111;50.972;7.072;2023-07-29T06:50:09;100328.06;;;19.84;100.00
8140;BME280;4111;50.972;7.072;2023-07-29T06:52:36;100332.25;;;19.73;100.00
8140;BME280;4111;50.972;7.072;2023-07-29T06:55:04;100338.25;;;19.75;100.00
8140;BME280;4111;50.972;7.072;2023-07-29T06:57:31;100334.03;;;19.77;100.00
8140;BME280;4111;50.972;7.072;2023-07-29T06:59:57;100330.31;;;19.82;100.00
8140;BME280;4111;50.972;7.072;2023-07-29T07:02:23;100339.72;;;19.81;100.00
8140;BME280;4111;50.972;7.072;2023-07-29T07:04:50;100330.97;;;19.79;100.00
8140;BME280;4111;50.972;7.072;2023-07-29T07:07:16;100338.41;;;19.78;100.00
8140;BME280;4111;50.972;7.072;2023-07-29T07:09:43;100335.69;;;19.87;100.00
8140;BME280;4111;50.972;7.072;2023-07-29T07:12:09;100333.44;;;19.98;100.00
8140;BME280;4111;50.972;7.072;2023-07-29T07:14:37;100328.28;;;20.05;100.00
8140;BME280;4111;50.972;7.072;2023-07-29T07:17:03;100334.66;;;20.14;100.00
8140;BME280;4111;50.972;7.072;2023-07-29T07:19:30;100338.03;;;20.20;100.00
8140;BME280;4111;50.972;7.072;2023-07-29T07:21:56;100334.03;;;20.26;100.00
8140;BME280;4111;50.972;7.072;2023-07-29T07:24:23;100336.94;;;20.38;100.00
8140;BME280;4111;50.972;7.072;2023-07-29T07:26:49;100343.13;;;20.53;100.00
8140;BME280;4111;50.972;7.072;2023-07-29T07:29:16;100343.59;;;20.55;100.00
8140;BME280;4111;50.972;7.072;2023-07-29T07:31:50;100338.16;;;20.64;100.00
8140;BME280;4111;50.972;7.072;2023-07-29T07:34:18;100342.50;;;20.56;100.00
8140;BME280;4111;50.972;7.072;2023-07-29T07:36:45;100346.19;;;20.51;100.00
8140;BME280;4111;50.972;7.072;2023-07-29T07:39:12;100357.06;;;20.48;100.00
8140;BME280;4111;50.972;7.072;2023-07-29T07:41:39;100350.41;;;20.49;100.00
8140;BME280;4111;50.972;7.072;2023-07-29T07:44:05;100346.69;;;20.45;100.00
8140;BME280;4111;50.972;7.072;2023-07-29T07:46:31;100351.72;;;20.43;100.00
8140;BME280;4111;50.972;7.072;2023-07-29T07:48:58;100349.28;;;20.50;100.00
8140;BME280;4111;50.972;7.072;2023-07-29T07:51:24;100354.47;;;20.51;100.00
8140;BME280;4111;50.972;7.072;2023-07-29T07:53:51;100352.19;;;20.45;100.00
8140;BME280;4111;50.972;7.072;2023-07-29T07:56:17;100356.41;;;20.51;100.00
8140;BME280;4111;50.972;7.072;2023-07-29T07:58:43;100364.22;;;20.49;100.00
8140;BME280;4111;50.972;7.072;2023-07-29T08:01:10;100365.50;;;20.43;100.00
8140;BME280;4111;50.972;7.072;2023-07-29T08:03:38;100357.72;;;20.45;100.00
8140;BME280;4111;50.972;7.072;2023-07-29T08:06:05;100358.19;;;20.47;100.00
8140;BME280;4111;50.972;7.072;2023-07-29T08:08:35;100346.69;;;20.45;100.00
8140;BME280;4111;50.972;7.072;2023-07-29T08:11:02;100356.56;;;20.46;100.00
8140;BME280;4111;50.972;7.072;2023-07-29T08:13:28;100351.09;;;20.54;100.00
8140;BME280;4111;50.972;7.072;2023-07-29T08:15:55;100355.13;;;20.57;100.00
8140;BME280;4111;50.972;7.072;2023-07-29T08:18:21;100355.94;;;20.57;100.00
8140;BME280;4111;50.972;7.072;2023-07-29T08:20:54;100345.59;;;20.72;100.00
8140;BME280;4111;50.972;7.072;2023-07-29T08:23:21;100346.41;;;20.90;100.00
8140;BME280;4111;50.972;7.072;2023-07-29T08:25:55;100349.66;;;20.92;100.00
8140;BME280;4111;50.972;7.072;2023-07-29T08:28:23;100354.66;;;20.81;100.00
8140;BME280;4111;50.972;7.072;2023-07-29T08:30:50;100348.84;;;20.83;100.00
8140;BME280;4111;50.972;7.072;2023-07-29T08:33:16;100356.13;;;20.78;100.00
8140;BME280;4111;50.972;7.072;2023-07-29T08:35:43;100367.03;;;20.66;100.00
8140;BME280;4111;50.972;7.072;2023-07-29T08:38:09;100361.50;;;20.92;100.00
8140;BME280;4111;50.972;7.072;2023-07-29T08:40:38;100360.19;;;21.07;99.68
8140;BME280;4111;50.972;7.072;2023-07-29T08:43:09;100364.22;;;21.18;98.05
8140;BME280;4111;50.972;7.072;2023-07-29T08:45:37;100364.69;;;21.29;97.49
8140;BME280;4111;50.972;7.072;2023-07-29T08:48:07;100356.72;;;21.28;99.73
8140;BME280;4111;50.972;7.072;2023-07-29T08:50:36;100367.63;;;21.24;98.83
8140;BME280;4111;50.972;7.072;2023-07-29T08:53:06;100367.31;;;21.17;100.00
8140;BME280;4111;50.972;7.072;2023-07-29T08:55:33;100377.53;;;21.16;100.00
8140;BME280;4111;50.972;7.072;2023-07-29T08:58:00;100374.63;;;21.04;100.00
8140;BME280;4111;50.972;7.072;2023-07-29T09:00:27;100377.25;;;20.92;98.70
8140;BME280;4111;50.972;7.072;2023-07-29T09:02:54;100388.91;;;20.89;97.85
8140;BME280;4111;50.972;7.072;2023-07-29T09:05:21;100381.47;;;20.80;97.48
8140;BME280;4111;50.972;7.072;2023-07-29T09:07:51;100375.13;;;20.89;98.79
8140;BME280;4111;50.972;7.072;2023-07-29T09:10:21;100381.78;;;20.88;98.85
8140;BME280;4111;50.972;7.072;2023-07-29T09:12:49;100376.09;;;20.84;98.25
8140;BME280;4111;50.972;7.072;2023-07-29T09:15:29;100381.13;;;20.91;98.31
8140;BME280;4111;50.972;7.072;2023-07-29T09:17:57;100375.63;;;20.91;98.28
8140;BME280;4111;50.972;7.072;2023-07-29T09:20:27;100381.97;;;20.91;96.98
8140;BME280;4111;50.972;7.072;2023-07-29T09:22:55;100382.94;;;20.95;96.99
8140;BME280;4111;50.972;7.072;2023-07-29T09:25:26;100381.47;;;20.98;97.38
8140;BME280;4111;50.972;7.072;2023-07-29T09:27:58;100377.72;;;20.94;96.70
8140;BME280;4111;50.972;7.072;2023-07-29T09:30:25;100374.97;;;20.94;96.66
8140;BME280;4111;50.972;7.072;2023-07-29T09:32:58;100377.72;;;20.94;96.12
8140;BME280;4111;50.972;7.072;2023-07-29T09:35:30;100381.47;;;20.98;95.70
8140;BME280;4111;50.972;7.072;2023-07-29T09:37:58;100383.91;;;20.99;95.36
8140;BME280;4111;50.972;7.072;2023-07-29T09:40:24;100381.47;;;20.98;93.97
8140;BME280;4111;50.972;7.072;2023-07-29T09:42:52;100385.22;;;20.93;94.99
8140;BME280;4111;50.972;7.072;2023-07-29T09:45:21;100392.66;;;20.93;95.02
8140;BME280;4111;50.972;7.072;2023-07-29T09:47:48;100392.81;;;20.96;95.85
8140;BME280;4111;50.972;7.072;2023-07-29T09:50:15;100391.69;;;20.97;96.29
8140;BME280;4111;50.972;7.072;2023-07-29T09:52:42;100399.16;;;20.97;96.97
8140;BME280;4111;50.972;7.072;2023-07-29T09:55:13;100392.50;;;20.98;99.26
8140;BME280;4111;50.972;7.072;2023-07-29T09:57:43;100384.06;;;21.03;99.32
8140;BME280;4111;50.972;7.072;2023-07-29T10:00:11;100387.31;;;20.96;99.47
8140;BME280;4111;50.972;7.072;2023-07-29T10:02:42;100377.72;;;21.03;100.00
8140;BME280;4111;50.972;7.072;2023-07-29T10:05:10;100381.47;;;20.98;100.00
8140;BME280;4111;50.972;7.072;2023-07-29T10:07:37;100391.19;;;21.04;100.00
8140;BME280;4111;50.972;7.072;2023-07-29T10:10:06;100389.88;;;21.10;100.00
8140;BME280;4111;50.972;7.072;2023-07-29T10:12:34;100394.91;;;21.43;100.00
8140;BME280;4111;50.972;7.072;2023-07-29T10:15:03;100397.84;;;21.47;100.00
8140;BME280;4111;50.972;7.072;2023-07-29T10:17:30;100402.22;;;21.39;99.28
8140;BME280;4111;50.972;7.072;2023-07-29T10:19:59;100408.06;;;21.46;98.25
8140;BME280;4111;50.972;7.072;2023-07-29T10:22:39;100393.91;;;21.39;96.45
8140;BME280;4111;50.972;7.072;2023-07-29T10:25:17;100396.00;;;21.42;96.79
8140;BME280;4111;50.972;7.072;2023-07-29T10:27:53;100399.78;;;21.46;96.70
8140;BME280;4111;50.972;7.072;2023-07-29T10:30:24;100407.06;;;21.59;96.52
8140;BME280;4111;50.972;7.072;2023-07-29T10:32:51;100408.84;;;21.55;96.34
8140;BME280;4111;50.972;7.072;2023-07-29T10:35:18;100411.16;;;21.45;94.68
8140;BME280;4111;50.972;7.072;2023-07-29T10:37:46;100403.16;;;21.34;93.67
8140;BME280;4111;50.972;7.072;2023-07-29T10:40:12;100407.09;;;21.25;92.62
8140;BME280;4111;50.972;7.072;2023-07-29T10:42:59;100400.59;;;21.20;91.86
8140;BME280;4111;50.972;7.072;2023-07-29T10:45:36;100395.75;;;21.17;92.19
8140;BME280;4111;50.972;7.072;2023-07-29T10:51:24;100403.22;;;21.08;91.53
8140;BME280;4111;50.972;7.072;2023-07-29T10:54:13;100403.22;;;21.08;91.80
8140;BME280;4111;50.972;7.072;2023-07-29T10:56:46;100407.41;;;21.14;92.37
8140;BME280;4111;50.972;7.072;2023-07-29T11:01:50;100412.13;;;21.14;92.64
8140;BME280;4111;50.972;7.072;2023-07-29T11:09:52;100399.16;;;21.23;91.83
8140;BME280;4111;50.972;7.072;2023-07-29T11:17:38;100400.09;;;21.18;92.94
8140;BME280;4111;50.972;7.072;2023-07-29T11:20:06;100401.25;;;21.17;93.45
8140;BME280;4111;50.972;7.072;2023-07-29T11:22:37;100400.94;;;21.19;93.86
8140;BME280;4111;50.972;7.072;2023-07-29T11:25:04;100401.44;;;21.21;94.57
8140;BME280;4111;50.972;7.072;2023-07-29T11:27:31;100396.84;;;21.16;94.54
8140;BME280;4111;50.972;7.072;2023-07-29T11:29:59;100399.47;;;21.13;94.37
8140;BME280;4111;50.972;7.072;2023-07-29T11:32:26;100394.09;;;20.99;93.62
8140;BME280;4111;50.972;7.072;2023-07-29T11:34:53;100393.31;;;20.98;93.89
8140;BME280;4111;50.972;7.072;2023-07-29T11:37:19;100390.53;;;21.16;94.77
8140;BME280;4111;50.972;7.072;2023-07-29T11:39:47;100379.47;;;21.33;95.23
8140;BME280;4111;50.972;7.072;2023-07-29T11:42:14;100384.47;;;21.57;95.47
8140;BME280;4111;50.972;7.072;2023-07-29T11:44:42;100383.63;;;21.74;95.45
8140;BME280;4111;50.972;7.072;2023-07-29T11:47:12;100383.41;;;21.88;95.55
8140;BME280;4111;50.972;7.072;2023-07-29T11:49:40;100377.41;;;21.86;94.30
8140;BME280;4111;50.972;7.072;2023-07-29T11:52:10;100378.63;;;21.97;94.71
8140;BME280;4111;50.972;7.072;2023-07-29T11:54:37;100380.53;;;22.06;94.24
8140;BME280;4111;50.972;7.072;2023-07-29T11:57:08;100392.69;;;22.13;93.57
8140;BME280;4111;50.972;7.072;2023-07-29T11:59:37;100387.63;;;22.24;92.92
8140;BME280;4111;50.972;7.072;2023-07-29T12:02:10;100380.22;;;22.37;91.79
8140;BME280;4111;50.972;7.072;2023-07-29T12:04:38;100393.72;;;22.38;90.47
8140;BME280;4111;50.972;7.072;2023-07-29T12:07:06;100388.00;;;22.44;90.74
8140;BME280;4111;50.972;7.072;2023-07-29T12:09:33;100383.94;;;22.41;89.75
8140;BME280;4111;50.972;7.072;2023-07-29T12:12:02;100381.41;;;22.27;88.74
8140;BME280;4111;50.972;7.072;2023-07-29T12:14:29;100380.19;;;22.07;88.09
8140;BME280;4111;50.972;7.072;2023-07-29T12:16:55;100381.03;;;22.08;89.90
8140;BME280;4111;50.972;7.072;2023-07-29T12:19:22;100380.50;;;22.14;89.91
8140;BME280;4111;50.972;7.072;2023-07-29T12:21:48;100380.44;;;22.23;89.17
8140;BME280;4111;50.972;7.072;2023-07-29T12:24:16;100374.44;;;22.21;86.98
8140;BME280;4111;50.972;7.072;2023-07-29T12:26:43;100371.31;;;22.31;86.41
8140;BME280;4111;50.972;7.072;2023-07-29T12:29:14;100369.31;;;22.41;84.54
8140;BME280;4111;50.972;7.072;2023-07-29T12:31:42;100372.75;;;22.37;83.10
8140;BME280;4111;50.972;7.072;2023-07-29T12:34:09;100362.03;;;22.36;84.20
8140;BME280;4111;50.972;7.072;2023-07-29T12:36:49;100367.69;;;22.40;83.72
8140;BME280;4111;50.972;7.072;2023-07-29T12:39:20;100358.19;;;22.49;83.41
8140;BME280;4111;50.972;7.072;2023-07-29T12:41:48;100349.16;;;22.61;83.20
8140;BME280;4111;50.972;7.072;2023-07-29T12:44:15;100346.69;;;22.81;83.30
8140;BME280;4111;50.972;7.072;2023-07-29T12:46:42;100354.19;;;22.80;83.03
8140;BME280;4111;50.972;7.072;2023-07-29T12:49:09;100346.97;;;22.88;81.43
8140;BME280;4111;50.972;7.072;2023-07-29T12:51:36;100357.84;;;22.93;81.65
8140;BME280;4111;50.972;7.072;2023-07-29T12:54:04;100353.78;;;22.90;80.29
8140;BME280;4111;50.972;7.072;2023-07-29T12:56:31;100357.38;;;22.91;80.16
8140;BME280;4111;50.972;7.072;2023-07-29T12:58:58;100353.16;;;22.85;79.54
8140;BME280;4111;50.972;7.072;2023-07-29T13:01:25;100345.56;;;22.82;80.05
8140;BME280;4111;50.972;7.072;2023-07-29T13:03:52;100345.66;;;22.73;80.45
8140;BME280;4111;50.972;7.072;2023-07-29T13:06:19;100348.53;;;22.76;80.85
8140;BME280;4111;50.972;7.072;2023-07-29T13:08:47;100339.75;;;22.74;81.19
8140;BME280;4111;50.972;7.072;2023-07-29T13:11:14;100346.22;;;22.78;81.54
8140;BME280;4111;50.972;7.072;2023-07-29T13:13:41;100344.34;;;22.91;82.14
8140;BME280;4111;50.972;7.072;2023-07-29T13:16:08;100340.53;;;22.96;82.23
8140;BME280;4111;50.972;7.072;2023-07-29T13:18:34;100345.41;;;22.99;81.88
8140;BME280;4111;50.972;7.072;2023-07-29T13:21:01;100347.31;;;23.07;81.52
8140;BME280;4111;50.972;7.072;2023-07-29T13:23:27;100344.09;;;22.96;80.88
8140;BME280;4111;50.972;7.072;2023-07-29T13:25:56;100343.53;;;22.91;80.88